Архив погоды в Тихвине

Метеограмма Тихвин
Понедельник, 17 Июня
Время местн. Темп Ветер Видим Явления Облачность нижн/средн/верх Атм. давл. Влжн Точка росы ВНГО R Сост. почвы Tg s
Напр Скр Прв ур.ст ур.м изм
03:00 +8.6° штиль 0 - 0.5 км туман, небо видно ясно 755 760 0 100% +8.6° более 2.5 км - - - -
00:00 +11.2° штиль 0 - 2 км дымка ясно 755 760 -0.5 99% +11° более 2.5 км - - - -
Воскресенье, 16 Июня
Время местн. Темп Ветер Видим Явления Облачность нижн/средн/верх Атм. давл. Влжн Точка росы ВНГО R Сост. почвы Tg s
Напр Скр Прв ур.ст ур.м изм
21:00 +17.7° З 1 - 20 км - незначительная облачность 755 761 -0.5 78% +13.9° 1.5 км 0 - - -
18:00 +19.6° З 1 - 20 км - преимущественно облачно 756 761 -0.6 71% +14.1° 1 км - - - -
15:00 +17.3° Ю-З 1 - 30 км - облачно 756 762 -1 85% +14.7° 1.5 км - - - -
12:00 +16.8° З 1 - 20 км - преимущественно облачно 757 763 +0.4 81% +13.6° 1 км - - - -
09:00 +14.4° З 1 - 20 км - облачно 757 762 +0.1 91% +13° 600 м 0.4 Влажная (без луж) - -
06:00 +13° З,С-З 1 - 15 км - облачно 757 762 +0.4 93% +11.9° 600 м - - - -
03:00 +13° штиль 0 - 4 км дымка {морось} облачно 756 762 +0.1 97% +12.6° 600 м - - - -
00:00 +13.2° С,С-В 1 - 2 км дымка {морось} облачно 756 762 +0.3 97% +12.8° 300 м - - - -
Суббота, 15 Июня
Время местн. Темп Ветер Видим Явления Облачность нижн/средн/верх Атм. давл. Влжн Точка росы ВНГО R Сост. почвы Tg s
Напр Скр Прв ур.ст ур.м изм
21:00 +14° С-З 1 - 8 км слабая непрерывная морось облачно 756 762 +0.1 97% +13.5° 300 м 1 - - -
18:00 +14.8° В,С-В 1 - 12 км небо без изменений {морось} облачно 756 762 +0.2 96% +14.1° 1 км - - - -
15:00 +14.4° С,С-В 1 - 2.5 км умеренная непрерывная морось облачно 756 762 +0.3 97% +13.9° 300 м - - - -
12:00 +13.6° В,С-В 2 - 12 км - облачно 756 761 -0.1 96% +12.9° 300 м - - - -
09:00 +12.4° Ю-В 1 - 9 км дымка {дождь} облачно 756 761 -0.5 96% +11.8° 600 м 4 Влажная (без луж) - -
06:00 +10.8° В 1 - 8 км дождь облачно 756 762 -0.8 99% +10.6° 600 м - - - -
03:00 +10.8° штиль 0 - 20 км - облачно 757 763 -0.5 94% +9.8° - - - - -
00:00 +11.2° штиль 0 - 20 км - облачно 758 756 0 94% +10.2° - - - - -
Пятница, 14 Июня
Время местн. Темп Ветер Видим Явления Облачность нижн/средн/верх Атм. давл. Влжн Точка росы ВНГО R Сост. почвы Tg s
Напр Скр Прв ур.ст ур.м изм
21:00 +13.5° штиль 0 - 30 км - переменная облачность 758 763 -0.5 85% +11° - 0.5 - - -
18:00 +14° В 2 - 30 км - преимущественно облачно 758 764 -0.5 78% +10.2° 1 км - - - -
15:00 +12° В 2 - 20 км небо без изменений {дождь} облачно 759 764 +0.7 86% +9.8° 1.5 км - - - -
12:00 +11.3° В 4 - 16 км слабый дождь с перерывами облачно 758 764 -0.3 94% +10.3° - - - - -
09:00 +11.2° В 1 - 12 км слабый непрерывный дождь облачно 758 764 -0.2 95% +10.4° - 5 Влажная (без луж) - -
06:00 +11.4° В,С-В 1 - 20 км дождь облачно 758 764 -1.4 92% +10.2° - - - - -
03:00 +13.1° В,Ю-В 1 - 20 км - облачно 760 765 -1.7 64% +6.4° - - - - -
00:00 +14° Ю,Ю-В 1 - 20 км - облачно с прояснениями 762 767 -1.1 58% +5.8° - - - - -